Repubblicadelbrasile — IBZB — position and weather

sailwx.info

Track history (hours):
 
Tides and Currents Weather Stations Pressure Air Temp Water Temp Dewpoint Dewpoint Depression Visibility Wind Speed Wind Dir Waves Ship Positions

Repubblicadelbrasile

Last reported at 2017-Aug-20 03:02 UTC. Time now 2017-Aug-21 02:28 UTC.
Position N 26°04' W 015°34'.

Length 210 m; draft 9.8 m.

Type: Ship (hazmat cat C). MMSI: 247310000.

Date/timePositionNaut miles runAvg speedWind from/ knotsBaromVisibWave heightAir tempDewpointWater temp
2017-Aug-20 03:02N 26°04' W 015°34'114.8
2017-Aug-20 03:00N 26°04' W 015°33'4215.0
2017-Aug-20 00:13N 26°40' W 015°09'815.5
2017-Aug-19 23:44N 26°46' W 015°05'615.3
2017-Aug-19 23:22N 26°51' W 015°02'2315.1
2017-Aug-19 21:49N 27°12' W 014°49'514.8
2017-Aug-19 21:27N 27°16' W 014°46'3114.7
2017-Aug-19 19:22N 27°42' W 014°26'514.8
2017-Aug-19 19:01N 27°46' W 014°23'815.0
2017-Aug-19 18:30N 27°52' W 014°18'815.3
2017-Aug-19 18:01N 27°59' W 014°14'815.5
2017-Aug-19 17:30N 28°03' W 014°06'816.1
2017-Aug-19 17:01N 28°07' W 013°58'815.9
2017-Aug-19 16:31N 28°12' W 013°51'815.5
2017-Aug-19 15:59N 28°19' W 013°47'815.9
2017-Aug-19 15:29N 28°26' W 013°44'815.7
2017-Aug-19 14:59N 28°34' W 013°41'1515.5
2017-Aug-19 14:00N 28°47' W 013°33'816.0
2017-Aug-19 13:30N 28°53' W 013°27'815.6
2017-Aug-19 13:00N 28°60' W 013°22'714.9
2017-Aug-19 12:30N 29°05' W 013°17'1214.7
2017-Aug-19 11:43N 29°15' W 013°08'415.0
2017-Aug-19 11:26N 29°18' W 013°05'714.8
2017-Aug-19 10:58N 29°23' W 013°00'714.9
2017-Aug-19 10:30N 29°28' W 012°55'815.1
2017-Aug-19 10:00N 29°34' W 012°49'814.9
2017-Aug-19 09:30N 29°40' W 012°44'2 4.9
2017-Aug-19 09:00N 29°42' W 012°42'1 2.0
2017-Aug-19 08:30N 29°42' W 012°41'5 9.8
2017-Aug-19 08:00N 29°46' W 012°37'915.0
2017-Aug-19 07:22N 29°53' W 012°30'615.1
2017-Aug-19 07:00N 29°57' W 012°26'815.3
2017-Aug-19 06:28N 30°04' W 012°19'1115.4
2017-Aug-19 05:45N 30°12' W 012°11'415.4
2017-Aug-19 05:30N 30°15' W 012°08'915.4
2017-Aug-19 04:56N 30°22' W 012°02'715.5
2017-Aug-19 04:30N 30°27' W 011°57'815.5
2017-Aug-19 04:00N 30°33' W 011°51'815.6
2017-Aug-19 03:30N 30°38' W 011°45'815.5
2017-Aug-19 03:00N 30°44' W 011°40'815.3
2017-Aug-19 02:28N 30°51' W 011°34'715.3
2017-Aug-19 02:00N 30°56' W 011°28'816.0
2017-Aug-19 01:30N 31°02' W 011°22'816.2
2017-Aug-19 01:00N 31°09' W 011°16'816.3
2017-Aug-19 00:30N 31°15' W 011°10'816.3
2017-Aug-19 00:00N 31°21' W 011°04'815.9
2017-Aug-18 23:30N 31°27' W 010°58'1215.6
2017-Aug-18 22:45N 31°36' W 010°49'415.7
2017-Aug-18 22:30N 31°39' W 010°46'815.7
2017-Aug-18 22:00N 31°45' W 010°40'815.5
2017-Aug-18 21:30N 31°51' W 010°34'1715.5
2017-Aug-18 20:25N 32°04' W 010°21'1115.2
2017-Aug-18 19:42N 32°12' W 010°12'2915.4
2017-Aug-18 17:49N 32°33' W 009°50'715.7
2017-Aug-18 17:23N 32°38' W 009°44'616.2
2017-Aug-18 17:00N 32°43' W 009°39'1916.1
2017-Aug-18 15:49N 32°57' W 009°24'516.0
2017-Aug-18 15:28N 33°01' W 009°20'816.0
2017-Aug-18 15:00N 33°07' W 009°14'3615.9
2017-Aug-18 12:44N 33°33' W 008°44'416.1
2017-Aug-18 12:29N 33°35' W 008°41'1415.7
2017-Aug-18 11:37N 33°42' W 008°26'215.0
2017-Aug-18 11:30N 33°42' W 008°24'815.1
2017-Aug-18 11:00N 33°43' W 008°15'3214.8
2017-Aug-18 08:50N 33°44' W 007°37'7 0.4
2017-Aug-17 13:10N 33°37' W 007°35'2 6.9
2017-Aug-17 12:56N 33°38' W 007°34'3 6.6
2017-Aug-17 12:30N 33°41' W 007°32'0 0.2
2017-Aug-17 10:45N 33°41' W 007°32'0 0.1
2017-Aug-17 10:30N 33°41' W 007°32'0 0.0
2017-Aug-17 09:45N 33°41' W 007°32'0 0.0
2017-Aug-17 09:30N 33°41' W 007°32'0 0.0
2017-Aug-17 08:00N 33°41' W 007°32'0 0.0
2017-Aug-17 07:30N 33°41' W 007°32'0 0.0
2017-Aug-17 06:45N 33°41' W 007°32'0 0.0
2017-Aug-17 06:30N 33°41' W 007°32'3 0.6
2017-Aug-17 01:02N 33°44' W 007°32'115.4
2017-Aug-17 01:00N 33°44' W 007°31'1715.3
2017-Aug-16 23:52N 33°60' W 007°22'2915.4
2017-Aug-16 22:00N 34°26' W 007°06'1015.7
2017-Aug-16 21:20N 34°35' W 007°00'2015.8
2017-Aug-16 20:04N 34°51' W 006°46'116.1
2017-Aug-16 20:00N 34°52' W 006°46'2715.9
2017-Aug-16 18:19N 35°16' W 006°31'515.7
2017-Aug-16 17:59N 35°21' W 006°28'915.7
2017-Aug-16 17:26N 35°28' W 006°22'1115.7
2017-Aug-16 16:43N 35°37' W 006°15'4014.3
2017-Aug-16 13:53N 35°58' W 005°32'513.9
2017-Aug-16 13:31N 35°60' W 005°26'815.4
2017-Aug-16 13:00N 36°02' W 005°17'23714.9
2017-Aug-15 21:06N 36°48' W 000°28'1315.7
2017-Aug-15 20:18N 36°51' W 000°13'515.9
2017-Aug-15 19:59N 36°52' W 000°07'816.0
2017-Aug-15 19:30N 36°54' E 000°02'816.0
2017-Aug-15 19:00N 36°57' E 000°12'815.9
2017-Aug-15 18:30N 36°58' E 000°21'815.5
2017-Aug-15 18:00N 37°00' E 000°31'1015.1
2017-Aug-15 17:19N 37°03' E 000°43'615.3
2017-Aug-15 16:58N 37°05' E 000°50'715.2
2017-Aug-15 16:30N 37°07' E 000°58'1115.3
2017-Aug-15 15:48N 37°10' E 001°11'515.3
2017-Aug-15 15:29N 37°11' E 001°17'715.4
2017-Aug-15 15:00N 37°13' E 001°26'815.6
2017-Aug-15 14:30N 37°15' E 001°35'815.6
2017-Aug-15 14:00N 37°17' E 001°45'815.7
2017-Aug-15 13:31N 37°19' E 001°54'815.6
2017-Aug-15 13:00N 37°21' E 002°04'815.4
2017-Aug-15 12:30N 37°23' E 002°13'815.1
2017-Aug-15 12:00N 37°25' E 002°23'815.2
2017-Aug-15 11:30N 37°27' E 002°32'815.3
2017-Aug-15 11:01N 37°29' E 002°41'815.3
2017-Aug-15 10:30N 37°31' E 002°50'1115.4
2017-Aug-15 09:47N 37°34' E 003°04'515.4
2017-Aug-15 09:29N 37°35' E 003°09'715.2
2017-Aug-15 09:00N 37°37' E 003°18'815.2
2017-Aug-15 08:29N 37°39' E 003°28'715.2
2017-Aug-15 08:00N 37°41' E 003°37'815.2
2017-Aug-15 07:30N 37°43' E 003°46'816.0
2017-Aug-15 07:00N 37°45' E 003°56'816.2
2017-Aug-15 06:30N 37°47' E 004°06'816.3
2017-Aug-15 06:00N 37°49' E 004°16'816.2
2017-Aug-15 05:31N 37°51' E 004°25'816.0
2017-Aug-15 04:59N 37°53' E 004°36'815.9
2017-Aug-15 04:29N 37°56' E 004°45'815.7
2017-Aug-15 03:58N 37°58' E 004°55'715.5
2017-Aug-15 03:30N 37°60' E 005°04'815.7
2017-Aug-15 03:00N 38°02' E 005°14'815.8
2017-Aug-15 02:30N 38°04' E 005°23'6716.0
2017-Aug-14 22:18N 38°22' E 006°46'816.0
2017-Aug-14 21:48N 38°24' E 006°56'516.0
2017-Aug-14 21:31N 38°25' E 007°01'1015.8
2017-Aug-14 20:51N 38°28' E 007°14'615.8
2017-Aug-14 20:30N 38°29' E 007°21'815.8
2017-Aug-14 20:00N 38°31' E 007°31'815.6
2017-Aug-14 19:30N 38°33' E 007°41'1215.3
2017-Aug-14 18:43N 38°36' E 007°55'315.2
2017-Aug-14 18:30N 38°37' E 007°59'915.4
2017-Aug-14 17:56N 38°39' E 008°10'715.7
2017-Aug-14 17:30N 38°41' E 008°19'915.7
2017-Aug-14 16:54N 38°44' E 008°30'716.0
2017-Aug-14 16:29N 38°46' E 008°38'816.0
2017-Aug-14 16:00N 38°48' E 008°48'816.2
2017-Aug-14 15:30N 38°50' E 008°58'816.6
2017-Aug-14 15:00N 38°52' E 009°08'816.7
2017-Aug-14 14:30N 38°55' E 009°18'816.9
2017-Aug-14 14:00N 38°57' E 009°29'25015.9
2017-Aug-13 22:20N 40°32' E 014°30'244 7.3
2017-Aug-12 12:48N 43°10' E 010°20'618.6
2017-Aug-12 12:30N 43°16' E 010°18'918.3
2017-Aug-12 12:00N 43°25' E 010°15'714.0
2017-Aug-12 11:30N 43°32' E 010°15'4 7.1
2017-Aug-12 11:00N 43°34' E 010°18'0 0.6
2017-Aug-12 10:29N 43°34' E 010°18'0 0.0
2017-Aug-12 09:59N 43°34' E 010°18'0 0.0
2017-Aug-12 09:29N 43°34' E 010°18'0 0.0
2017-Aug-12 08:59N 43°34' E 010°18'0 0.0
2017-Aug-12 08:29N 43°34' E 010°18'0 0.0
2017-Aug-12 07:59N 43°34' E 010°18'0 0.0
2017-Aug-12 07:29N 43°34' E 010°18'0 0.0
2017-Aug-12 06:56N 43°34' E 010°18'0 0.0
2017-Aug-12 06:26N 43°34' E 010°18'0 0.0
2017-Aug-12 05:59N 43°34' E 010°18'0 0.0
2017-Aug-12 05:29N 43°34' E 010°18'0 0.0
2017-Aug-12 04:56N 43°34' E 010°18'0 0.0
2017-Aug-12 04:29N 43°34' E 010°18'0 0.0
2017-Aug-12 03:59N 43°34' E 010°18'0 0.0
2017-Aug-12 03:29N 43°34' E 010°18'0 0.0
2017-Aug-12 02:59N 43°34' E 010°18'0 0.0
2017-Aug-12 02:26N 43°34' E 010°18'0 0.0
2017-Aug-12 01:59N 43°34' E 010°18'0 0.0
2017-Aug-12 01:29N 43°34' E 010°18'0 0.0
2017-Aug-12 00:59N 43°34' E 010°18'0 0.0
2017-Aug-12 00:29N 43°34' E 010°18'0 0.0
2017-Aug-11 23:59N 43°34' E 010°18'0 0.0
2017-Aug-11 23:29N 43°34' E 010°18'0 0.0
2017-Aug-11 22:59N 43°34' E 010°18'0 0.0
2017-Aug-11 22:29N 43°34' E 010°18'0 0.0
2017-Aug-11 21:59N 43°34' E 010°18'0 0.0
2017-Aug-11 21:29N 43°34' E 010°18'0 0.0
2017-Aug-11 20:56N 43°34' E 010°18'0 0.0
2017-Aug-11 20:29N 43°34' E 010°18'0 0.0
2017-Aug-11 19:59N 43°34' E 010°18'0 0.0
2017-Aug-11 19:29N 43°34' E 010°18'0 0.0
2017-Aug-11 18:59N 43°34' E 010°18'0 0.0
2017-Aug-11 18:29N 43°34' E 010°18'0 0.0
2017-Aug-11 17:59N 43°34' E 010°18'0 0.0
2017-Aug-11 17:29N 43°34' E 010°18'0 0.0
2017-Aug-11 16:59N 43°34' E 010°18'0 0.0
2017-Aug-11 16:29N 43°34' E 010°18'1 3.0
2017-Aug-11 16:00N 43°33' E 010°17'5 9.2
2017-Aug-11 15:30N 43°30' E 010°13'2 4.1
2017-Aug-11 15:00N 43°29' E 010°10'510.1
2017-Aug-11 14:30N 43°30' E 010°04'1717.2
2017-Aug-11 13:30N 43°38' E 009°43'917.9
2017-Aug-11 13:00N 43°44' E 009°33'917.6
2017-Aug-11 12:30N 43°50' E 009°24'917.5
2017-Aug-11 12:00N 43°55' E 009°15'816.6
2017-Aug-11 11:30N 44°03' E 009°09'816.9
2017-Aug-11 11:00N 44°10' E 009°04'917.2
2017-Aug-11 10:30N 44°18' E 008°59'612.6
2017-Aug-11 10:00N 44°24' E 008°55'1 2.9
2017-Aug-11 09:30N 44°24' E 008°53'0 0.0
2017-Aug-11 09:00N 44°24' E 008°53'0 0.0
2017-Aug-11 08:30N 44°24' E 008°53'0 0.0
2017-Aug-11 08:00N 44°24' E 008°53'0 0.0
2017-Aug-11 07:30N 44°24' E 008°53'0 0.0
2017-Aug-11 07:00N 44°24' E 008°53'0 0.0
2017-Aug-11 06:30N 44°24' E 008°53'0 0.0
2017-Aug-11 06:00N 44°24' E 008°53'0 0.0
2017-Aug-11 05:30N 44°24' E 008°53'0 0.0
2017-Aug-11 05:00N 44°24' E 008°53'0 0.0
2017-Aug-11 04:30N 44°24' E 008°53'0 0.0
2017-Aug-11 04:00N 44°24' E 008°53'0 0.0
2017-Aug-11 03:30N 44°24' E 008°53'0 0.0
2017-Aug-11 03:00N 44°24' E 008°53'0 0.0
2017-Aug-11 02:30N 44°24' E 008°53'0 0.0
2017-Aug-11 02:00N 44°24' E 008°53'0 0.0
2017-Aug-11 01:30N 44°24' E 008°53'0 0.0
2017-Aug-11 00:54N 44°24' E 008°53'0 0.0
2017-Aug-11 00:30N 44°24' E 008°53'0 0.0
2017-Aug-11 00:00N 44°24' E 008°53'0 0.0
2017-Aug-10 23:30N 44°24' E 008°53'0 0.0
2017-Aug-10 23:00N 44°24' E 008°53'0 0.0
2017-Aug-10 22:30N 44°24' E 008°53'0 0.0
2017-Aug-10 22:00N 44°24' E 008°53'0 0.0
2017-Aug-10 21:30N 44°24' E 008°53'0 0.0
2017-Aug-10 21:00N 44°24' E 008°53'0 0.0
2017-Aug-10 20:30N 44°24' E 008°53'0 0.0
2017-Aug-10 19:57N 44°24' E 008°53'0 0.0
2017-Aug-10 19:30N 44°24' E 008°53'0 0.0
2017-Aug-10 19:00N 44°24' E 008°53'0 0.0
2017-Aug-10 18:30N 44°24' E 008°53'0 0.0
2017-Aug-10 18:00N 44°24' E 008°53'0 0.0
2017-Aug-10 17:30N 44°24' E 008°53'0 0.0
2017-Aug-10 17:00N 44°24' E 008°53'0 0.0
2017-Aug-10 16:30N 44°24' E 008°53'0 0.0
2017-Aug-10 16:00N 44°24' E 008°53'0 0.0
2017-Aug-10 15:30N 44°24' E 008°53'0 0.0
2017-Aug-10 15:00N 44°24' E 008°53'0 0.0
2017-Aug-10 14:30N 44°24' E 008°53'0 0.0
2017-Aug-10 14:00N 44°24' E 008°53'0 0.0
2017-Aug-10 13:30N 44°24' E 008°53'0 0.0
2017-Aug-10 13:00N 44°24' E 008°53'0 0.0
2017-Aug-10 12:30N 44°24' E 008°53'0 0.0
2017-Aug-10 12:00N 44°24' E 008°53'0 0.0
2017-Aug-10 11:30N 44°24' E 008°53'0 0.0
2017-Aug-10 11:00N 44°24' E 008°53'0 0.0
2017-Aug-10 10:30N 44°24' E 008°53'0 0.0
2017-Aug-10 10:00N 44°24' E 008°53'0 0.0
2017-Aug-10 09:30N 44°24' E 008°53'0 0.0
2017-Aug-10 09:00N 44°24' E 008°53'0 0.0
2017-Aug-10 08:30N 44°24' E 008°53'0 0.0
2017-Aug-10 08:00N 44°24' E 008°53'1 1.8
2017-Aug-10 07:30N 44°24' E 008°54'3 6.0
2017-Aug-10 07:00N 44°22' E 008°58'4 8.4
2017-Aug-10 06:30N 44°18' E 008°56'714.1
2017-Aug-10 06:00N 44°14' E 008°48'917.2
2017-Aug-10 05:30N 44°08' E 008°39'917.2
2017-Aug-10 05:00N 44°02' E 008°30'917.0
2017-Aug-10 04:30N 43°57' E 008°21'917.1
2017-Aug-10 04:00N 43°51' E 008°12'1617.0
2017-Aug-10 03:06N 43°42' E 007°55'  
Track history (hours):
 
Tides and Currents Weather Stations Pressure Air Temp Water Temp Dewpoint Dewpoint Depression Visibility Wind Speed Wind Dir Waves Ship Positions

Repubblicadelbrasile

Last reported at 2017-Aug-20 03:02 UTC. Time now 2017-Aug-21 02:28 UTC.
Position N 26°04' W 015°34'.

Length 210 m; draft 9.8 m.

Type: Ship (hazmat cat C). MMSI: 247310000.

Date/timePositionNaut miles runAvg speedWind from/ knotsBaromVisibWave heightAir tempDewpointWater temp
2017-Aug-20 03:02N 26°04' W 015°34'114.8
2017-Aug-20 03:00N 26°04' W 015°33'4215.0
2017-Aug-20 00:13N 26°40' W 015°09'815.5
2017-Aug-19 23:44N 26°46' W 015°05'615.3
2017-Aug-19 23:22N 26°51' W 015°02'2315.1
2017-Aug-19 21:49N 27°12' W 014°49'514.8
2017-Aug-19 21:27N 27°16' W 014°46'3114.7
2017-Aug-19 19:22N 27°42' W 014°26'514.8
2017-Aug-19 19:01N 27°46' W 014°23'815.0
2017-Aug-19 18:30N 27°52' W 014°18'815.3
2017-Aug-19 18:01N 27°59' W 014°14'815.5
2017-Aug-19 17:30N 28°03' W 014°06'816.1
2017-Aug-19 17:01N 28°07' W 013°58'815.9
2017-Aug-19 16:31N 28°12' W 013°51'815.5
2017-Aug-19 15:59N 28°19' W 013°47'815.9
2017-Aug-19 15:29N 28°26' W 013°44'815.7
2017-Aug-19 14:59N 28°34' W 013°41'1515.5
2017-Aug-19 14:00N 28°47' W 013°33'816.0
2017-Aug-19 13:30N 28°53' W 013°27'815.6
2017-Aug-19 13:00N 28°60' W 013°22'714.9
2017-Aug-19 12:30N 29°05' W 013°17'1214.7
2017-Aug-19 11:43N 29°15' W 013°08'415.0
2017-Aug-19 11:26N 29°18' W 013°05'714.8
2017-Aug-19 10:58N 29°23' W 013°00'714.9
2017-Aug-19 10:30N 29°28' W 012°55'815.1
2017-Aug-19 10:00N 29°34' W 012°49'814.9
2017-Aug-19 09:30N 29°40' W 012°44'2 4.9
2017-Aug-19 09:00N 29°42' W 012°42'1 2.0
2017-Aug-19 08:30N 29°42' W 012°41'5 9.8
2017-Aug-19 08:00N 29°46' W 012°37'915.0
2017-Aug-19 07:22N 29°53' W 012°30'615.1
2017-Aug-19 07:00N 29°57' W 012°26'815.3
2017-Aug-19 06:28N 30°04' W 012°19'1115.4
2017-Aug-19 05:45N 30°12' W 012°11'415.4
2017-Aug-19 05:30N 30°15' W 012°08'915.4
2017-Aug-19 04:56N 30°22' W 012°02'715.5
2017-Aug-19 04:30N 30°27' W 011°57'815.5
2017-Aug-19 04:00N 30°33' W 011°51'815.6
2017-Aug-19 03:30N 30°38' W 011°45'815.5
2017-Aug-19 03:00N 30°44' W 011°40'815.3
2017-Aug-19 02:28N 30°51' W 011°34'715.3
2017-Aug-19 02:00N 30°56' W 011°28'816.0
2017-Aug-19 01:30N 31°02' W 011°22'816.2
2017-Aug-19 01:00N 31°09' W 011°16'816.3
2017-Aug-19 00:30N 31°15' W 011°10'816.3
2017-Aug-19 00:00N 31°21' W 011°04'815.9
2017-Aug-18 23:30N 31°27' W 010°58'1215.6
2017-Aug-18 22:45N 31°36' W 010°49'415.7
2017-Aug-18 22:30N 31°39' W 010°46'815.7
2017-Aug-18 22:00N 31°45' W 010°40'815.5
2017-Aug-18 21:30N 31°51' W 010°34'1715.5
2017-Aug-18 20:25N 32°04' W 010°21'1115.2
2017-Aug-18 19:42N 32°12' W 010°12'2915.4
2017-Aug-18 17:49N 32°33' W 009°50'715.7
2017-Aug-18 17:23N 32°38' W 009°44'616.2
2017-Aug-18 17:00N 32°43' W 009°39'1916.1
2017-Aug-18 15:49N 32°57' W 009°24'516.0
2017-Aug-18 15:28N 33°01' W 009°20'816.0
2017-Aug-18 15:00N 33°07' W 009°14'3615.9
2017-Aug-18 12:44N 33°33' W 008°44'416.1
2017-Aug-18 12:29N 33°35' W 008°41'1415.7
2017-Aug-18 11:37N 33°42' W 008°26'215.0
2017-Aug-18 11:30N 33°42' W 008°24'815.1
2017-Aug-18 11:00N 33°43' W 008°15'3214.8
2017-Aug-18 08:50N 33°44' W 007°37'7 0.4
2017-Aug-17 13:10N 33°37' W 007°35'2 6.9
2017-Aug-17 12:56N 33°38' W 007°34'3 6.6
2017-Aug-17 12:30N 33°41' W 007°32'0 0.2
2017-Aug-17 10:45N 33°41' W 007°32'0 0.1
2017-Aug-17 10:30N 33°41' W 007°32'0 0.0
2017-Aug-17 09:45N 33°41' W 007°32'0 0.0
2017-Aug-17 09:30N 33°41' W 007°32'0 0.0
2017-Aug-17 08:00N 33°41' W 007°32'0 0.0
2017-Aug-17 07:30N 33°41' W 007°32'0 0.0
2017-Aug-17 06:45N 33°41' W 007°32'0 0.0
2017-Aug-17 06:30N 33°41' W 007°32'3 0.6
2017-Aug-17 01:02N 33°44' W 007°32'115.4
2017-Aug-17 01:00N 33°44' W 007°31'1715.3
2017-Aug-16 23:52N 33°60' W 007°22'2915.4
2017-Aug-16 22:00N 34°26' W 007°06'1015.7
2017-Aug-16 21:20N 34°35' W 007°00'2015.8
2017-Aug-16 20:04N 34°51' W 006°46'116.1
2017-Aug-16 20:00N 34°52' W 006°46'2715.9
2017-Aug-16 18:19N 35°16' W 006°31'515.7
2017-Aug-16 17:59N 35°21' W 006°28'915.7
2017-Aug-16 17:26N 35°28' W 006°22'1115.7
2017-Aug-16 16:43N 35°37' W 006°15'4014.3
2017-Aug-16 13:53N 35°58' W 005°32'513.9
2017-Aug-16 13:31N 35°60' W 005°26'815.4
2017-Aug-16 13:00N 36°02' W 005°17'23714.9
2017-Aug-15 21:06N 36°48' W 000°28'1315.7
2017-Aug-15 20:18N 36°51' W 000°13'515.9
2017-Aug-15 19:59N 36°52' W 000°07'816.0
2017-Aug-15 19:30N 36°54' E 000°02'816.0
2017-Aug-15 19:00N 36°57' E 000°12'815.9
2017-Aug-15 18:30N 36°58' E 000°21'815.5
2017-Aug-15 18:00N 37°00' E 000°31'1015.1
2017-Aug-15 17:19N 37°03' E 000°43'615.3
2017-Aug-15 16:58N 37°05' E 000°50'715.2
2017-Aug-15 16:30N 37°07' E 000°58'1115.3
2017-Aug-15 15:48N 37°10' E 001°11'515.3
2017-Aug-15 15:29N 37°11' E 001°17'715.4
2017-Aug-15 15:00N 37°13' E 001°26'815.6
2017-Aug-15 14:30N 37°15' E 001°35'815.6
2017-Aug-15 14:00N 37°17' E 001°45'815.7
2017-Aug-15 13:31N 37°19' E 001°54'815.6
2017-Aug-15 13:00N 37°21' E 002°04'815.4
2017-Aug-15 12:30N 37°23' E 002°13'815.1
2017-Aug-15 12:00N 37°25' E 002°23'815.2
2017-Aug-15 11:30N 37°27' E 002°32'815.3
2017-Aug-15 11:01N 37°29' E 002°41'815.3
2017-Aug-15 10:30N 37°31' E 002°50'1115.4
2017-Aug-15 09:47N 37°34' E 003°04'515.4
2017-Aug-15 09:29N 37°35' E 003°09'715.2
2017-Aug-15 09:00N 37°37' E 003°18'815.2
2017-Aug-15 08:29N 37°39' E 003°28'715.2
2017-Aug-15 08:00N 37°41' E 003°37'815.2
2017-Aug-15 07:30N 37°43' E 003°46'816.0
2017-Aug-15 07:00N 37°45' E 003°56'816.2
2017-Aug-15 06:30N 37°47' E 004°06'816.3
2017-Aug-15 06:00N 37°49' E 004°16'816.2
2017-Aug-15 05:31N 37°51' E 004°25'816.0
2017-Aug-15 04:59N 37°53' E 004°36'815.9
2017-Aug-15 04:29N 37°56' E 004°45'815.7
2017-Aug-15 03:58N 37°58' E 004°55'715.5
2017-Aug-15 03:30N 37°60' E 005°04'815.7
2017-Aug-15 03:00N 38°02' E 005°14'815.8
2017-Aug-15 02:30N 38°04' E 005°23'6716.0
2017-Aug-14 22:18N 38°22' E 006°46'816.0
2017-Aug-14 21:48N 38°24' E 006°56'516.0
2017-Aug-14 21:31N 38°25' E 007°01'1015.8
2017-Aug-14 20:51N 38°28' E 007°14'615.8
2017-Aug-14 20:30N 38°29' E 007°21'815.8
2017-Aug-14 20:00N 38°31' E 007°31'815.6
2017-Aug-14 19:30N 38°33' E 007°41'1215.3
2017-Aug-14 18:43N 38°36' E 007°55'315.2
2017-Aug-14 18:30N 38°37' E 007°59'915.4
2017-Aug-14 17:56N 38°39' E 008°10'715.7
2017-Aug-14 17:30N 38°41' E 008°19'915.7
2017-Aug-14 16:54N 38°44' E 008°30'716.0
2017-Aug-14 16:29N 38°46' E 008°38'816.0
2017-Aug-14 16:00N 38°48' E 008°48'816.2
2017-Aug-14 15:30N 38°50' E 008°58'816.6
2017-Aug-14 15:00N 38°52' E 009°08'816.7
2017-Aug-14 14:30N 38°55' E 009°18'816.9
2017-Aug-14 14:00N 38°57' E 009°29'25015.9
2017-Aug-13 22:20N 40°32' E 014°30'244 7.3
2017-Aug-12 12:48N 43°10' E 010°20'618.6
2017-Aug-12 12:30N 43°16' E 010°18'918.3
2017-Aug-12 12:00N 43°25' E 010°15'714.0
2017-Aug-12 11:30N 43°32' E 010°15'4 7.1
2017-Aug-12 11:00N 43°34' E 010°18'0 0.6
2017-Aug-12 10:29N 43°34' E 010°18'0 0.0
2017-Aug-12 09:59N 43°34' E 010°18'0 0.0
2017-Aug-12 09:29N 43°34' E 010°18'0 0.0
2017-Aug-12 08:59N 43°34' E 010°18'0 0.0
2017-Aug-12 08:29N 43°34' E 010°18'0 0.0
2017-Aug-12 07:59N 43°34' E 010°18'0 0.0
2017-Aug-12 07:29N 43°34' E 010°18'0 0.0
2017-Aug-12 06:56N 43°34' E 010°18'0 0.0
2017-Aug-12 06:26N 43°34' E 010°18'0 0.0
2017-Aug-12 05:59N 43°34' E 010°18'0 0.0
2017-Aug-12 05:29N 43°34' E 010°18'0 0.0
2017-Aug-12 04:56N 43°34' E 010°18'0 0.0
2017-Aug-12 04:29N 43°34' E 010°18'0 0.0
2017-Aug-12 03:59N 43°34' E 010°18'0 0.0
2017-Aug-12 03:29N 43°34' E 010°18'0 0.0
2017-Aug-12 02:59N 43°34' E 010°18'0 0.0
2017-Aug-12 02:26N 43°34' E 010°18'0 0.0
2017-Aug-12 01:59N 43°34' E 010°18'0 0.0
2017-Aug-12 01:29N 43°34' E 010°18'0 0.0
2017-Aug-12 00:59N 43°34' E 010°18'0 0.0
2017-Aug-12 00:29N 43°34' E 010°18'0 0.0
2017-Aug-11 23:59N 43°34' E 010°18'0 0.0
2017-Aug-11 23:29N 43°34' E 010°18'0 0.0
2017-Aug-11 22:59N 43°34' E 010°18'0 0.0
2017-Aug-11 22:29N 43°34' E 010°18'0 0.0
2017-Aug-11 21:59N 43°34' E 010°18'0 0.0
2017-Aug-11 21:29N 43°34' E 010°18'0 0.0
2017-Aug-11 20:56N 43°34' E 010°18'0 0.0
2017-Aug-11 20:29N 43°34' E 010°18'0 0.0
2017-Aug-11 19:59N 43°34' E 010°18'0 0.0
2017-Aug-11 19:29N 43°34' E 010°18'0 0.0
2017-Aug-11 18:59N 43°34' E 010°18'0 0.0
2017-Aug-11 18:29N 43°34' E 010°18'0 0.0
2017-Aug-11 17:59N 43°34' E 010°18'0 0.0
2017-Aug-11 17:29N 43°34' E 010°18'0 0.0
2017-Aug-11 16:59N 43°34' E 010°18'0 0.0
2017-Aug-11 16:29N 43°34' E 010°18'1 3.0
2017-Aug-11 16:00N 43°33' E 010°17'5 9.2
2017-Aug-11 15:30N 43°30' E 010°13'2 4.1
2017-Aug-11 15:00N 43°29' E 010°10'510.1
2017-Aug-11 14:30N 43°30' E 010°04'1717.2
2017-Aug-11 13:30N 43°38' E 009°43'917.9
2017-Aug-11 13:00N 43°44' E 009°33'917.6
2017-Aug-11 12:30N 43°50' E 009°24'917.5
2017-Aug-11 12:00N 43°55' E 009°15'816.6
2017-Aug-11 11:30N 44°03' E 009°09'816.9
2017-Aug-11 11:00N 44°10' E 009°04'917.2
2017-Aug-11 10:30N 44°18' E 008°59'612.6
2017-Aug-11 10:00N 44°24' E 008°55'1 2.9
2017-Aug-11 09:30N 44°24' E 008°53'0 0.0
2017-Aug-11 09:00N 44°24' E 008°53'0 0.0
2017-Aug-11 08:30N 44°24' E 008°53'0 0.0
2017-Aug-11 08:00N 44°24' E 008°53'0 0.0
2017-Aug-11 07:30N 44°24' E 008°53'0 0.0
2017-Aug-11 07:00N 44°24' E 008°53'0 0.0
2017-Aug-11 06:30N 44°24' E 008°53'0 0.0
2017-Aug-11 06:00N 44°24' E 008°53'0 0.0
2017-Aug-11 05:30N 44°24' E 008°53'0 0.0
2017-Aug-11 05:00N 44°24' E 008°53'0 0.0
2017-Aug-11 04:30N 44°24' E 008°53'0 0.0
2017-Aug-11 04:00N 44°24' E 008°53'0 0.0
2017-Aug-11 03:30N 44°24' E 008°53'0 0.0
2017-Aug-11 03:00N 44°24' E 008°53'0 0.0
2017-Aug-11 02:30N 44°24' E 008°53'0 0.0
2017-Aug-11 02:00N 44°24' E 008°53'0 0.0
2017-Aug-11 01:30N 44°24' E 008°53'0 0.0
2017-Aug-11 00:54N 44°24' E 008°53'0 0.0
2017-Aug-11 00:30N 44°24' E 008°53'0 0.0
2017-Aug-11 00:00N 44°24' E 008°53'0 0.0
2017-Aug-10 23:30N 44°24' E 008°53'0 0.0
2017-Aug-10 23:00N 44°24' E 008°53'0 0.0
2017-Aug-10 22:30N 44°24' E 008°53'0 0.0
2017-Aug-10 22:00N 44°24' E 008°53'0 0.0
2017-Aug-10 21:30N 44°24' E 008°53'0 0.0
2017-Aug-10 21:00N 44°24' E 008°53'0 0.0
2017-Aug-10 20:30N 44°24' E 008°53'0 0.0
2017-Aug-10 19:57N 44°24' E 008°53'0 0.0
2017-Aug-10 19:30N 44°24' E 008°53'0 0.0
2017-Aug-10 19:00N 44°24' E 008°53'0 0.0
2017-Aug-10 18:30N 44°24' E 008°53'0 0.0
2017-Aug-10 18:00N 44°24' E 008°53'0 0.0
2017-Aug-10 17:30N 44°24' E 008°53'0 0.0
2017-Aug-10 17:00N 44°24' E 008°53'0 0.0
2017-Aug-10 16:30N 44°24' E 008°53'0 0.0
2017-Aug-10 16:00N 44°24' E 008°53'0 0.0
2017-Aug-10 15:30N 44°24' E 008°53'0 0.0
2017-Aug-10 15:00N 44°24' E 008°53'0 0.0
2017-Aug-10 14:30N 44°24' E 008°53'0 0.0
2017-Aug-10 14:00N 44°24' E 008°53'0 0.0
2017-Aug-10 13:30N 44°24' E 008°53'0 0.0
2017-Aug-10 13:00N 44°24' E 008°53'0 0.0
2017-Aug-10 12:30N 44°24' E 008°53'0 0.0
2017-Aug-10 12:00N 44°24' E 008°53'0 0.0
2017-Aug-10 11:30N 44°24' E 008°53'0 0.0
2017-Aug-10 11:00N 44°24' E 008°53'0 0.0
2017-Aug-10 10:30N 44°24' E 008°53'0 0.0
2017-Aug-10 10:00N 44°24' E 008°53'0 0.0
2017-Aug-10 09:30N 44°24' E 008°53'0 0.0
2017-Aug-10 09:00N 44°24' E 008°53'0 0.0
2017-Aug-10 08:30N 44°24' E 008°53'0 0.0
2017-Aug-10 08:00N 44°24' E 008°53'1 1.8
2017-Aug-10 07:30N 44°24' E 008°54'3 6.0
2017-Aug-10 07:00N 44°22' E 008°58'4 8.4
2017-Aug-10 06:30N 44°18' E 008°56'714.1
2017-Aug-10 06:00N 44°14' E 008°48'917.2
2017-Aug-10 05:30N 44°08' E 008°39'917.2
2017-Aug-10 05:00N 44°02' E 008°30'917.0
2017-Aug-10 04:30N 43°57' E 008°21'917.1
2017-Aug-10 04:00N 43°51' E 008°12'1617.0
2017-Aug-10 03:06N 43°42' E 007°55'  

Dump ship's entire track history